Time;durP1;ratioP1;P1;durP2;ratioP2;P2;SDS_P1;SDS_P2;PMS_P1;PMS_P2;Temp;Humidity;BMP_temperature;BMP_pressure;BME280_temperature;BME280_humidity;BME280_pressure;Samples;Min_cycle;Max_cycle;Signal;HPM_P1;HPM_P2
2022/03/21 00:01:53;;;;;;;17.90;8.90;;;4.70;65.70;;;;;;5018684;28;20141;-84
2022/03/21 00:04:19;;;;;;;17.27;8.93;;;4.60;65.70;;;;;;4978586;28;25074;-83
2022/03/21 00:06:45;;;;;;;15.87;8.40;;;4.60;65.80;;;;;;5001984;28;20038;-84
2022/03/21 00:09:10;;;;;;;16.92;8.50;;;4.60;65.90;;;;;;4988640;28;20029;-84
2022/03/21 00:11:36;;;;;;;16.97;9.23;;;4.60;66.00;;;;;;5002215;28;20030;-84
2022/03/21 00:14:02;;;;;;;17.63;9.00;;;4.50;66.10;;;;;;5000905;28;20080;-84
2022/03/21 00:16:27;;;;;;;15.90;8.03;;;4.50;66.20;;;;;;4993690;28;20065;-84
2022/03/21 00:18:53;;;;;;;16.10;8.88;;;4.50;66.20;;;;;;4993349;28;20503;-84
2022/03/21 00:21:19;;;;;;;17.57;9.07;;;4.50;66.20;;;;;;4969221;28;20026;-84
2022/03/21 00:23:46;;;;;;;15.20;8.50;;;4.40;66.30;;;;;;4989010;28;20034;-84
2022/03/21 00:26:13;;;;;;;16.33;8.75;;;4.40;66.30;;;;;;4987409;28;20200;-84
2022/03/21 00:28:38;;;;;;;19.23;9.27;;;4.40;67.20;;;;;;5000731;28;20341;-84
2022/03/21 00:31:04;;;;;;;17.67;9.25;;;4.40;66.50;;;;;;5010098;28;20118;-84
2022/03/21 00:33:31;;;;;;;15.80;8.65;;;4.40;66.60;;;;;;5006708;28;21049;-84
2022/03/21 00:35:58;;;;;;;19.17;10.35;;;4.30;66.60;;;;;;4988087;28;20030;-84
2022/03/21 00:38:24;;;;;;;15.53;8.43;;;4.30;66.70;;;;;;4981621;28;20597;-84
2022/03/21 00:40:50;;;;;;;19.63;9.50;;;4.40;66.80;;;;;;4992350;28;20034;-84
2022/03/21 00:43:19;;;;;;;19.00;9.63;;;4.30;66.80;;;;;;4972927;28;20654;-84
2022/03/21 00:45:46;;;;;;;15.85;9.02;;;4.30;66.90;;;;;;4987357;28;20029;-84
2022/03/21 00:48:12;;;;;;;19.13;9.32;;;4.30;66.90;;;;;;4979821;28;20234;-84
2022/03/21 00:50:38;;;;;;;18.20;9.27;;;4.30;66.90;;;;;;4983306;28;20037;-84
2022/03/21 00:53:04;;;;;;;18.30;9.45;;;4.20;66.80;;;;;;5003553;28;20034;-84
2022/03/21 00:55:30;;;;;;;18.00;8.95;;;4.20;66.90;;;;;;5009663;28;20701;-84
2022/03/21 00:57:57;;;;;;;20.15;8.90;;;4.20;67.00;;;;;;4980920;28;20184;-84
2022/03/21 01:00:26;;;;;;;18.10;9.27;;;4.20;67.00;;;;;;5012467;28;20311;-84
2022/03/21 01:02:54;;;;;;;17.60;9.05;;;4.10;67.00;;;;;;5004068;28;20030;-84
2022/03/21 01:05:20;;;;;;;17.67;9.30;;;4.10;67.00;;;;;;4988747;28;20083;-84
2022/03/21 01:07:46;;;;;;;18.75;9.23;;;4.10;67.00;;;;;;4990869;28;20025;-84
2022/03/21 01:10:16;;;;;;;18.07;9.37;;;4.10;67.10;;;;;;5011427;28;20074;-84
2022/03/21 01:12:43;;;;;;;18.73;9.38;;;4.10;67.30;;;;;;5003291;28;20065;-84
2022/03/21 01:15:10;;;;;;;21.13;9.48;;;4.10;67.30;;;;;;4993882;28;20022;-84
2022/03/21 01:17:36;;;;;;;19.45;10.07;;;4.00;67.30;;;;;;4994005;28;20227;-84
2022/03/21 01:20:03;;;;;;;16.90;8.97;;;4.00;67.20;;;;;;5000595;28;20038;-84
2022/03/21 01:22:28;;;;;;;18.38;9.32;;;4.00;68.10;;;;;;4992526;28;20734;-84
2022/03/21 01:24:54;;;;;;;17.70;9.37;;;4.00;67.40;;;;;;4991181;28;20029;-84
2022/03/21 01:27:21;;;;;;;17.90;9.00;;;3.90;67.40;;;;;;4993738;28;20251;-84
2022/03/21 01:29:47;;;;;;;16.67;9.25;;;3.90;67.30;;;;;;4980321;28;20025;-84
2022/03/21 01:32:13;;;;;;;17.43;9.43;;;3.90;67.30;;;;;;5002818;28;20372;-84
2022/03/21 01:34:39;;;;;;;17.60;8.65;;;3.90;67.20;;;;;;5021074;28;20025;-84
2022/03/21 01:37:05;;;;;;;17.23;9.00;;;3.90;67.30;;;;;;5006739;28;20028;-84
2022/03/21 01:39:30;;;;;;;18.13;9.13;;;3.80;67.30;;;;;;5003569;28;20169;-84
2022/03/21 01:41:56;;;;;;;17.67;8.95;;;3.80;67.40;;;;;;4988154;28;20038;-84
2022/03/21 01:44:22;;;;;;;16.47;8.43;;;3.80;68.20;;;;;;4984691;28;20595;-84
2022/03/21 01:46:48;;;;;;;20.17;9.75;;;3.70;67.50;;;;;;4983587;28;20033;-84
2022/03/21 01:49:14;;;;;;;18.93;9.13;;;3.70;67.40;;;;;;4989526;28;20049;-84
2022/03/21 01:51:43;;;;;;;18.45;9.38;;;3.70;67.50;;;;;;4992489;28;20029;-84
2022/03/21 01:56:55;;;;;;;17.52;8.55;;;3.70;67.70;;;;;;5004423;28;20036;-84
2022/03/21 01:59:22;;;;;;;18.80;8.95;;;3.70;67.70;;;;;;4993418;28;20038;-84
2022/03/21 02:01:49;;;;;;;15.90;8.60;;;3.60;67.70;;;;;;4979146;28;20537;-84
2022/03/21 02:04:15;;;;;;;16.70;8.85;;;3.60;67.80;;;;;;4997533;28;20537;-84
2022/03/21 02:06:45;;;;;;;18.77;9.18;;;3.60;67.90;;;;;;5007007;28;20111;-84
2022/03/21 02:09:11;;;;;;;17.33;8.32;;;3.60;68.00;;;;;;4989504;28;20030;-84
2022/03/21 02:11:38;;;;;;;18.80;8.75;;;3.50;67.70;;;;;;5006729;28;20022;-84
2022/03/21 02:14:06;;;;;;;16.70;8.13;;;3.50;67.70;;;;;;4980729;28;20373;-84
2022/03/21 02:16:33;;;;;;;16.92;8.68;;;3.50;67.80;;;;;;4994883;28;20260;-84
2022/03/21 02:19:03;;;;;;;17.40;8.75;;;3.40;67.80;;;;;;4988505;28;20026;-84
2022/03/21 02:21:37;;;;;;;18.70;9.43;;;3.40;67.90;;;;;;5012998;28;20133;-83
2022/03/21 02:24:14;;;;;;;17.35;8.65;;;3.40;68.00;;;;;;4991597;28;20553;-84
2022/03/21 02:26:41;;;;;;;18.13;8.67;;;3.40;68.10;;;;;;4989004;28;20568;-84
2022/03/21 02:29:08;;;;;;;17.83;8.70;;;3.40;68.00;;;;;;5014900;28;20030;-84
2022/03/21 02:31:35;;;;;;;18.13;8.77;;;3.40;68.10;;;;;;5004139;28;20223;-84
2022/03/21 02:34:01;;;;;;;19.92;9.40;;;3.30;68.00;;;;;;4980506;28;20025;-84
2022/03/21 02:36:27;;;;;;;16.80;8.68;;;3.30;68.00;;;;;;4997711;28;20436;-84
2022/03/21 02:38:56;;;;;;;17.97;9.00;;;3.30;68.00;;;;;;4989628;28;20066;-84
2022/03/21 02:41:22;;;;;;;16.88;8.88;;;3.30;68.10;;;;;;5000650;28;20469;-84
2022/03/21 02:43:56;;;;;;;16.00;8.43;;;3.20;68.00;;;;;;4980980;28;20025;-84
2022/03/21 02:46:22;;;;;;;17.47;8.43;;;3.20;68.10;;;;;;4984107;28;20026;-84
2022/03/21 02:48:49;;;;;;;17.58;8.40;;;3.20;68.10;;;;;;5003549;28;20416;-84
2022/03/21 02:51:17;;;;;;;16.92;8.75;;;3.20;68.10;;;;;;5002057;28;20084;-84
2022/03/21 02:53:45;;;;;;;19.65;8.60;;;3.10;68.20;;;;;;5018523;28;20461;-84
2022/03/21 02:56:10;;;;;;;19.10;9.43;;;3.10;68.20;;;;;;4989267;28;20401;-84
2022/03/21 02:58:36;;;;;;;17.00;8.83;;;3.10;68.40;;;;;;4999706;28;20392;-84
2022/03/21 03:01:07;;;;;;;18.88;9.40;;;3.10;68.50;;;;;;5003839;28;20339;-84
2022/03/21 03:03:32;;;;;;;17.13;8.40;;;3.10;68.60;;;;;;4999217;28;20302;-84
2022/03/21 03:05:58;;;;;;;18.20;8.98;;;3.10;68.50;;;;;;4993943;28;20014;-84
2022/03/21 03:08:24;;;;;;;17.40;8.60;;;3.10;68.60;;;;;;4981135;28;20030;-84
2022/03/21 03:10:49;;;;;;;19.40;9.35;;;3.00;68.60;;;;;;5007723;28;20041;-84
2022/03/21 03:13:15;;;;;;;19.77;9.30;;;3.00;68.60;;;;;;4984829;28;20034;-84
2022/03/21 03:15:41;;;;;;;16.77;8.87;;;3.00;68.70;;;;;;4995809;28;20033;-84
2022/03/21 03:18:06;;;;;;;18.35;9.48;;;3.00;68.80;;;;;;4998891;28;20528;-83
2022/03/21 03:20:32;;;;;;;17.90;9.40;;;3.00;68.80;;;;;;4978302;28;20330;-84
2022/03/21 03:23:01;;;;;;;18.92;9.25;;;3.00;69.00;;;;;;5010448;28;20083;-84
2022/03/21 03:25:27;;;;;;;21.20;10.15;;;3.00;69.30;;;;;;4985635;28;20133;-84
2022/03/21 03:27:53;;;;;;;20.87;9.37;;;3.00;69.30;;;;;;5009151;28;20045;-84
2022/03/21 03:30:19;;;;;;;18.50;9.73;;;3.00;69.40;;;;;;4991748;28;20234;-84
2022/03/21 03:32:47;;;;;;;18.20;9.40;;;3.10;69.50;;;;;;4986656;28;20401;-84
2022/03/21 03:35:13;;;;;;;19.83;9.40;;;3.10;69.40;;;;;;4995151;28;20608;-84
2022/03/21 03:37:39;;;;;;;17.05;8.77;;;3.10;69.20;;;;;;4994863;28;20129;-84
2022/03/21 03:40:05;;;;;;;18.07;9.17;;;3.10;69.10;;;;;;4992769;28;20025;-84
2022/03/21 03:42:31;;;;;;;18.73;9.32;;;3.00;69.10;;;;;;4987700;28;20294;-84
2022/03/21 03:44:57;;;;;;;18.37;8.50;;;3.00;69.10;;;;;;4978656;28;20461;-84
2022/03/21 03:47:23;;;;;;;18.83;9.60;;;3.00;69.10;;;;;;4999604;28;20363;-84
2022/03/21 03:49:49;;;;;;;18.58;9.05;;;3.00;69.10;;;;;;4990697;28;20105;-84
2022/03/21 03:52:15;;;;;;;18.90;9.70;;;3.00;69.10;;;;;;4980678;28;20056;-84
2022/03/21 03:54:40;;;;;;;18.17;9.07;;;3.00;69.10;;;;;;4986498;28;20393;-83
2022/03/21 03:57:06;;;;;;;19.57;9.13;;;2.90;69.10;;;;;;4993121;28;20088;-83
2022/03/21 03:59:32;;;;;;;18.38;9.07;;;2.90;69.20;;;;;;5003214;28;20042;-84
2022/03/21 04:01:57;;;;;;;20.63;9.37;;;2.90;69.30;;;;;;4980085;28;20026;-84
2022/03/21 04:04:24;;;;;;;19.83;9.57;;;2.90;69.40;;;;;;4991703;28;20282;-84
2022/03/21 04:06:50;;;;;;;19.50;9.35;;;2.90;69.40;;;;;;5002498;28;20029;-84
2022/03/21 04:09:15;;;;;;;18.57;8.77;;;2.90;69.40;;;;;;5002431;28;20026;-83
2022/03/21 04:11:41;;;;;;;20.73;10.02;;;2.90;69.50;;;;;;4974345;28;20266;-83
2022/03/21 04:14:07;;;;;;;19.63;9.50;;;2.90;69.60;;;;;;5017566;28;20026;-84
2022/03/21 04:16:32;;;;;;;16.73;8.23;;;2.90;69.70;;;;;;4976383;28;20768;-83
2022/03/21 04:18:58;;;;;;;17.50;8.33;;;2.90;69.70;;;;;;5004167;28;20033;-84
2022/03/21 04:21:24;;;;;;;16.73;8.53;;;2.90;69.80;;;;;;4970099;28;20422;-84
2022/03/21 04:23:50;;;;;;;17.55;8.45;;;2.90;69.90;;;;;;4995839;28;20474;-84
2022/03/21 04:26:15;;;;;;;18.25;9.38;;;2.90;69.80;;;;;;4977451;28;20072;-84
2022/03/21 04:28:41;;;;;;;17.73;8.20;;;2.90;69.80;;;;;;4988995;28;20045;-84
2022/03/21 04:31:07;;;;;;;18.33;9.03;;;2.90;69.80;;;;;;5002781;28;20034;-84
2022/03/21 04:33:32;;;;;;;20.67;9.38;;;2.90;69.90;;;;;;4977372;28;20310;-84
2022/03/21 04:35:58;;;;;;;18.43;8.70;;;2.80;69.90;;;;;;4980831;28;20029;-84
2022/03/21 04:38:24;;;;;;;19.20;9.48;;;2.80;69.80;;;;;;4999990;28;20064;-84
2022/03/21 04:40:50;;;;;;;19.77;9.00;;;2.80;69.90;;;;;;4995030;28;20282;-84
2022/03/21 04:43:18;;;;;;;17.77;8.60;;;2.80;69.90;;;;;;4981864;28;20337;-84
2022/03/21 04:45:46;;;;;;;18.55;9.10;;;2.80;69.90;;;;;;4984606;28;20025;-84
2022/03/21 04:48:12;;;;;;;19.38;9.65;;;2.80;69.90;;;;;;4989129;28;20076;-84
2022/03/21 04:50:38;;;;;;;17.75;9.32;;;2.80;70.00;;;;;;5012181;28;20053;-84
2022/03/21 04:53:05;;;;;;;17.38;8.60;;;2.80;70.00;;;;;;5004406;28;20072;-84
2022/03/21 04:55:32;;;;;;;17.37;8.60;;;2.80;70.00;;;;;;5006124;28;20277;-84
2022/03/21 04:57:59;;;;;;;18.63;9.07;;;2.70;69.90;;;;;;5000281;28;20029;-84
2022/03/21 05:00:25;;;;;;;20.08;9.63;;;2.70;69.90;;;;;;4983258;28;20291;-84
2022/03/21 05:02:51;;;;;;;20.60;8.82;;;2.70;69.90;;;;;;5016394;28;20189;-84
2022/03/21 05:05:16;;;;;;;17.83;8.20;;;2.70;69.80;;;;;;5002818;28;20033;-84
2022/03/21 05:07:45;;;;;;;16.45;8.82;;;2.70;69.70;;;;;;4974998;28;20628;-83
2022/03/21 05:10:12;;;;;;;19.00;9.48;;;2.70;69.70;;;;;;4993945;28;20117;-84
2022/03/21 05:12:38;;;;;;;16.87;8.27;;;2.60;69.70;;;;;;5000660;28;20499;-83
2022/03/21 05:15:06;;;;;;;19.55;9.32;;;2.60;69.90;;;;;;5004242;28;20061;-83
2022/03/21 05:17:33;;;;;;;17.27;8.70;;;2.60;70.10;;;;;;4985514;28;20392;-83
2022/03/21 05:19:59;;;;;;;18.50;8.67;;;2.60;70.20;;;;;;4995495;28;20045;-84
2022/03/21 05:22:26;;;;;;;20.88;9.50;;;2.60;70.40;;;;;;5016623;28;20033;-84
2022/03/21 05:35:55;;;;;;;17.08;8.60;;;2.50;70.20;;;;;;5005307;28;20089;-84
2022/03/21 05:38:29;;;;;;;18.33;8.63;;;2.50;70.00;;;;;;4974277;28;20460;-83
2022/03/21 05:41:00;;;;;;;18.85;8.98;;;2.50;70.30;;;;;;5005962;28;20487;-84
2022/03/21 05:43:33;;;;;;;17.25;8.90;;;2.50;70.20;;;;;;5000040;28;20076;-84
2022/03/21 05:46:00;;;;;;;15.67;8.47;;;2.50;70.20;;;;;;5005792;28;20250;-84
2022/03/21 05:51:16;;;;;;;18.58;8.88;;;2.40;70.00;;;;;;4981894;28;20053;-84
2022/03/21 05:53:42;;;;;;;17.50;8.80;;;2.40;70.10;;;;;;5007234;28;20029;-84
2022/03/21 05:56:08;;;;;;;15.98;8.40;;;2.40;70.20;;;;;;5010659;28;20033;-83
2022/03/21 05:58:33;;;;;;;18.20;9.10;;;2.40;70.30;;;;;;4994181;28;20334;-83
2022/03/21 06:01:00;;;;;;;17.40;8.40;;;2.40;70.40;;;;;;4954880;28;20580;-84
2022/03/21 06:03:25;;;;;;;18.85;8.85;;;2.30;70.40;;;;;;4991696;28;20084;-85
2022/03/21 06:05:53;;;;;;;18.17;8.83;;;2.30;70.50;;;;;;4982872;28;21085;-83
2022/03/21 06:08:20;;;;;;;15.98;8.00;;;2.30;70.50;;;;;;5006158;28;20092;-84
2022/03/21 06:10:46;;;;;;;17.20;8.70;;;2.40;70.70;;;;;;4976432;28;20108;-83
2022/03/21 06:13:13;;;;;;;19.02;9.27;;;2.40;70.70;;;;;;4994524;28;20647;-83
2022/03/21 06:15:40;;;;;;;18.77;9.03;;;2.40;70.90;;;;;;4981905;28;20506;-83
2022/03/21 06:18:10;;;;;;;20.25;9.23;;;2.40;71.00;;;;;;4986185;28;20026;-83
2022/03/21 06:20:36;;;;;;;17.95;8.35;;;2.50;71.20;;;;;;4981325;28;20501;-83
2022/03/21 06:23:02;;;;;;;16.48;8.38;;;2.50;71.10;;;;;;4988076;28;20034;-84
2022/03/21 06:25:27;;;;;;;16.27;8.60;;;2.50;71.20;;;;;;4999623;28;20067;-83
2022/03/21 06:27:53;;;;;;;21.47;10.00;;;2.60;71.40;;;;;;4975046;28;20179;-83
2022/03/21 06:30:19;;;;;;;17.83;9.32;;;2.60;71.50;;;;;;4989378;28;20022;-83
2022/03/21 06:32:45;;;;;;;17.10;8.83;;;2.70;71.70;;;;;;5004440;28;20038;-83
2022/03/21 06:35:11;;;;;;;17.10;8.70;;;2.80;71.80;;;;;;5004157;28;20064;-83
2022/03/21 06:37:41;;;;;;;18.02;8.95;;;2.80;72.00;;;;;;4972648;28;20112;-83
2022/03/21 06:40:08;;;;;;;16.87;7.47;;;2.90;73.20;;;;;;4989037;28;20060;-83
2022/03/21 06:42:34;;;;;;;18.90;8.57;;;3.00;72.40;;;;;;4996918;28;20029;-83
2022/03/21 06:45:00;;;;;;;16.73;8.45;;;3.20;72.30;;;;;;4988848;28;20026;-83
2022/03/21 06:47:26;;;;;;;19.33;9.60;;;3.20;72.40;;;;;;4987318;28;20029;-83
2022/03/21 06:49:52;;;;;;;19.30;9.53;;;3.40;72.60;;;;;;4986373;28;20126;-83
2022/03/21 06:52:18;;;;;;;19.20;9.82;;;3.50;73.20;;;;;;4990854;28;20057;-83
2022/03/21 06:54:46;;;;;;;18.00;8.95;;;3.70;73.70;;;;;;4975882;28;20148;-83
2022/03/21 06:57:12;;;;;;;19.33;9.05;;;3.90;74.00;;;;;;4990711;28;20034;-84
2022/03/21 06:59:38;;;;;;;16.77;8.80;;;4.20;74.10;;;;;;5016059;28;20125;-83
2022/03/21 07:02:04;;;;;;;19.67;9.38;;;4.40;74.00;;;;;;4962155;28;20026;-83
2022/03/21 07:04:31;;;;;;;17.15;9.50;;;4.60;73.90;;;;;;5015342;28;20026;-84
2022/03/21 07:06:57;;;;;;;16.60;9.07;;;4.70;73.70;;;;;;4968625;28;20029;-84
2022/03/21 07:09:26;;;;;;;15.23;8.65;;;4.90;73.80;;;;;;5001995;28;20117;-84
2022/03/21 07:11:52;;;;;;;16.20;8.57;;;5.10;73.90;;;;;;4997462;28;20426;-84
2022/03/21 07:14:21;;;;;;;16.17;9.00;;;5.30;74.10;;;;;;4978601;28;20033;-84
2022/03/21 07:16:48;;;;;;;16.83;9.18;;;5.50;74.30;;;;;;4960417;28;20177;-84
2022/03/21 07:19:14;;;;;;;14.00;8.50;;;5.70;74.50;;;;;;4984724;28;20030;-84
2022/03/21 07:21:40;;;;;;;15.40;8.65;;;5.90;74.60;;;;;;4990565;28;20038;-85
2022/03/21 07:24:07;;;;;;;14.02;8.25;;;6.10;74.80;;;;;;4997267;28;20026;-85
2022/03/21 07:26:33;;;;;;;14.98;8.50;;;6.40;75.20;;;;;;4992750;28;20049;-85
2022/03/21 07:28:59;;;;;;;14.83;8.60;;;6.70;75.50;;;;;;4982570;28;20025;-84
2022/03/21 07:31:25;;;;;;;14.43;8.18;;;6.90;75.80;;;;;;4962300;28;20030;-84
2022/03/21 07:33:50;;;;;;;14.90;8.90;;;7.20;76.10;;;;;;4983240;28;20029;-84
2022/03/21 07:36:16;;;;;;;13.80;7.97;;;7.50;76.60;;;;;;5006718;28;20277;-84
2022/03/21 07:38:42;;;;;;;15.97;8.83;;;7.90;77.60;;;;;;4987877;28;20040;-84
2022/03/21 07:41:08;;;;;;;13.10;8.15;;;8.20;78.50;;;;;;5010562;28;20230;-85
2022/03/21 07:43:35;;;;;;;12.10;8.27;;;8.80;79.20;;;;;;4979917;28;20022;-85
2022/03/21 07:48:46;;;;;;;12.07;7.80;;;9.80;80.00;;;;;;4984206;28;20056;-85
2022/03/21 07:51:12;;;;;;;11.60;8.07;;;10.40;79.90;;;;;;4992611;28;20047;-85
2022/03/21 07:53:38;;;;;;;13.10;8.48;;;10.90;79.60;;;;;;4977194;28;20032;-85
2022/03/21 07:56:04;;;;;;;14.25;9.35;;;11.40;79.00;;;;;;4992678;28;20029;-85
2022/03/21 07:58:33;;;;;;;14.53;9.27;;;11.80;78.80;;;;;;4976455;28;20346;-85
2022/03/21 08:01:00;;;;;;;15.95;9.32;;;12.30;78.20;;;;;;4961827;28;20681;-85
2022/03/21 08:03:27;;;;;;;16.52;10.35;;;12.70;78.10;;;;;;4989648;28;20062;-85
2022/03/21 08:05:53;;;;;;;15.25;9.82;;;13.10;77.40;;;;;;4964298;28;20432;-85
2022/03/21 08:08:20;;;;;;;14.43;9.38;;;13.50;77.50;;;;;;4986058;28;20672;-85
2022/03/21 08:10:46;;;;;;;13.83;9.67;;;13.90;77.00;;;;;;4986232;28;20500;-86
2022/03/21 08:13:17;;;;;;;13.88;9.10;;;14.30;76.40;;;;;;4986172;28;20033;-85
2022/03/21 08:15:44;;;;;;;12.18;8.05;;;14.60;75.60;;;;;;4961476;28;20105;-85
2022/03/21 08:18:11;;;;;;;14.55;8.93;;;14.90;75.50;;;;;;4955112;28;20053;-85
2022/03/21 08:20:39;;;;;;;14.68;8.90;;;15.20;75.40;;;;;;4976367;28;20034;-85
2022/03/21 08:23:11;;;;;;;13.53;8.80;;;15.50;75.00;;;;;;4968338;28;20150;-85
2022/03/21 08:25:38;;;;;;;12.95;8.82;;;15.80;74.10;;;;;;4987654;28;20034;-84
2022/03/21 08:28:05;;;;;;;16.60;10.00;;;16.00;74.80;;;;;;4970618;28;20034;-85
2022/03/21 08:30:35;;;;;;;13.30;9.13;;;16.30;74.00;;;;;;4988747;28;20034;-85
2022/03/21 08:33:02;;;;;;;12.80;8.68;;;16.50;73.90;;;;;;4975486;28;20141;-85
2022/03/21 08:35:30;;;;;;;13.83;9.03;;;16.80;73.70;;;;;;4996809;28;20676;-85
2022/03/21 08:37:56;;;;;;;15.55;9.50;;;17.10;73.80;;;;;;4985819;28;20497;-85
2022/03/21 08:40:22;;;;;;;13.15;8.70;;;17.30;73.80;;;;;;4982817;28;20603;-85
2022/03/21 08:42:47;;;;;;;11.77;8.33;;;17.60;73.60;;;;;;4976741;28;20486;-85
2022/03/21 08:45:15;;;;;;;11.47;7.80;;;17.90;73.50;;;;;;4980409;28;20312;-86
2022/03/21 08:47:42;;;;;;;12.02;8.00;;;18.20;73.50;;;;;;4984777;28;20036;-85
2022/03/21 08:50:09;;;;;;;10.80;7.93;;;18.50;72.30;;;;;;4960488;28;20033;-85
2022/03/21 08:52:35;;;;;;;10.30;7.27;;;18.80;71.70;;;;;;5004642;28;20022;-86
2022/03/21 08:55:01;;;;;;;10.88;6.82;;;19.00;71.50;;;;;;4993037;28;20111;-84
2022/03/21 08:57:27;;;;;;;8.98;6.50;;;19.20;71.20;;;;;;4983430;28;21261;-85
2022/03/21 08:59:53;;;;;;;8.57;6.10;;;19.40;71.00;;;;;;4993485;28;20021;-85
2022/03/21 09:02:20;;;;;;;11.73;7.10;;;19.60;70.90;;;;;;4999372;28;20691;-85
2022/03/21 09:04:46;;;;;;;11.70;6.95;;;19.80;69.90;;;;;;5000232;28;20033;-86
2022/03/21 09:07:14;;;;;;;10.63;7.27;;;20.00;69.50;;;;;;4963951;28;20307;-85
2022/03/21 09:09:40;;;;;;;9.50;6.35;;;20.10;69.20;;;;;;4964330;28;20034;-85
2022/03/21 09:12:07;;;;;;;10.50;6.78;;;20.30;69.20;;;;;;4967037;28;20412;-85
2022/03/21 09:14:34;;;;;;;9.80;6.30;;;20.60;68.30;;;;;;4991978;28;20525;-85
2022/03/21 09:17:00;;;;;;;10.32;6.63;;;20.70;68.30;;;;;;4985271;28;20029;-85
2022/03/21 09:19:28;;;;;;;9.30;6.47;;;21.00;68.00;;;;;;5020200;28;20061;-84
2022/03/21 09:21:58;;;;;;;10.45;6.80;;;21.20;67.40;;;;;;4980955;28;20393;-85
2022/03/21 09:24:24;;;;;;;9.10;6.28;;;21.40;66.60;;;;;;4987487;28;20516;-85
2022/03/21 09:26:50;;;;;;;9.65;6.80;;;21.60;66.30;;;;;;4990931;28;20049;-84
2022/03/21 09:29:16;;;;;;;9.97;6.00;;;21.80;65.30;;;;;;5007650;28;20026;-85
2022/03/21 09:31:42;;;;;;;8.23;5.72;;;22.00;65.10;;;;;;4967302;28;20129;-85
2022/03/21 09:34:09;;;;;;;10.18;7.20;;;22.20;65.70;;;;;;4964045;28;20318;-84
2022/03/21 09:36:35;;;;;;;10.33;6.30;;;22.40;63.70;;;;;;4969339;28;20034;-85
2022/03/21 09:39:01;;;;;;;8.82;5.50;;;22.50;63.20;;;;;;5013122;28;20026;-85
2022/03/21 09:41:28;;;;;;;8.38;5.82;;;22.70;63.60;;;;;;4982530;28;20480;-85
2022/03/21 09:43:55;;;;;;;8.40;6.45;;;22.80;62.80;;;;;;4974457;28;20029;-85
2022/03/21 09:46:22;;;;;;;8.33;6.17;;;22.90;61.90;;;;;;4983126;28;20030;-85
2022/03/21 09:48:49;;;;;;;8.18;5.68;;;23.10;61.80;;;;;;4983141;28;20072;-84
2022/03/21 09:51:24;;;;;;;7.45;5.38;;;23.20;61.90;;;;;;4979068;28;20220;-85
2022/03/21 09:53:50;;;;;;;9.35;6.50;;;23.40;60.10;;;;;;4986423;28;20560;-85
2022/03/21 09:56:17;;;;;;;8.75;5.95;;;23.60;61.60;;;;;;4970210;28;20646;-85
2022/03/21 09:58:43;;;;;;;10.27;7.07;;;23.70;60.90;;;;;;4998103;28;20389;-85
2022/03/21 10:01:11;;;;;;;8.05;6.07;;;23.90;60.50;;;;;;4980227;28;20785;-86
2022/03/21 10:03:41;;;;;;;6.47;5.30;;;24.10;60.10;;;;;;5000228;28;20022;-84
2022/03/21 10:06:27;;;;;;;9.32;6.30;;;24.30;60.10;;;;;;4985637;28;20433;-85
2022/03/21 10:09:12;;;;;;;9.63;6.25;;;24.50;56.60;;;;;;4985810;28;20564;-86
2022/03/21 10:11:47;;;;;;;9.00;6.40;;;24.70;55.10;;;;;;4976840;28;20053;-86
2022/03/21 10:14:23;;;;;;;8.05;6.20;;;24.90;58.60;;;;;;4988247;28;20546;-86
2022/03/21 10:16:53;;;;;;;9.60;5.93;;;25.10;56.30;;;;;;5005225;28;20085;-86
2022/03/21 10:19:19;;;;;;;9.00;6.32;;;25.30;58.80;;;;;;4979989;28;20034;-86
2022/03/21 10:22:01;;;;;;;7.97;5.90;;;25.50;58.80;;;;;;4988419;28;20108;-86
2022/03/21 10:24:26;;;;;;;8.30;5.93;;;25.80;54.20;;;;;;4984050;28;20068;-86
2022/03/21 10:26:53;;;;;;;8.02;6.13;;;26.10;58.00;;;;;;5006455;28;20223;-86
2022/03/21 10:29:19;;;;;;;8.47;6.03;;;26.30;57.70;;;;;;4965428;28;20022;-87
2022/03/21 10:31:47;;;;;;;9.75;6.43;;;26.50;56.90;;;;;;4999142;28;20334;-86
2022/03/21 10:34:18;;;;;;;10.48;6.47;;;26.70;55.60;;;;;;4979892;28;20046;-86
2022/03/21 10:37:07;;;;;;;8.50;5.43;;;27.00;54.20;;;;;;4980937;28;20107;-86
2022/03/21 10:39:39;;;;;;;7.23;5.43;;;27.30;54.70;;;;;;4968283;28;20022;-85
2022/03/21 10:42:10;;;;;;;6.43;5.53;;;27.40;55.20;;;;;;5006679;28;20026;-86
2022/03/21 10:44:37;;;;;;;6.75;5.22;;;27.60;53.40;;;;;;5001894;28;20317;-86
2022/03/21 10:47:05;;;;;;;8.52;5.80;;;27.70;54.60;;;;;;4998940;28;20034;-86
2022/03/21 10:49:34;;;;;;;7.25;5.65;;;27.70;53.20;;;;;;4974502;28;20018;-86
2022/03/21 10:52:00;;;;;;;7.47;5.30;;;27.90;53.50;;;;;;4992141;28;20264;-86
2022/03/21 10:54:48;;;;;;;6.20;5.10;;;28.00;53.90;;;;;;5000309;28;20080;-86
2022/03/21 10:57:36;;;;;;;7.13;5.38;;;28.20;50.10;;;;;;5000378;28;20083;-86
2022/03/21 11:00:15;;;;;;;7.93;5.32;;;28.50;49.60;;;;;;4984536;28;20064;-86
2022/03/21 11:02:54;;;;;;;7.10;5.68;;;28.70;50.70;;;;;;4996909;28;20071;-86
2022/03/21 11:05:21;;;;;;;7.60;5.73;;;28.90;49.80;;;;;;4996301;28;20161;-86
2022/03/21 11:07:48;;;;;;;7.25;5.80;;;29.10;52.20;;;;;;4995909;28;20022;-86
2022/03/21 11:10:14;;;;;;;7.45;6.28;;;29.30;52.00;;;;;;5009512;28;20040;-86
2022/03/21 11:12:45;;;;;;;7.00;5.70;;;29.50;51.20;;;;;;4999692;28;20041;-86
2022/03/21 11:15:11;;;;;;;7.85;5.78;;;29.60;50.70;;;;;;5002310;28;20030;-86
2022/03/21 11:17:37;;;;;;;7.63;5.63;;;29.70;49.70;;;;;;4995287;28;20565;-86
2022/03/21 11:20:07;;;;;;;6.30;4.90;;;29.80;49.50;;;;;;4986533;28;20223;-86
2022/03/21 11:22:36;;;;;;;7.25;4.95;;;29.80;48.30;;;;;;4972057;28;20088;-86
2022/03/21 11:25:07;;;;;;;7.10;4.38;;;29.90;49.50;;;;;;4996987;28;20056;-85
2022/03/21 11:28:04;;;;;;;6.70;4.80;;;30.10;49.10;;;;;;4963072;28;20422;-85
2022/03/21 11:31:22;;;;;;;6.90;4.73;;;30.10;47.10;;;;;;4996607;28;20072;-86
2022/03/21 11:34:05;;;;;;;6.63;4.55;;;30.10;43.70;;;;;;4993495;28;20038;-86
2022/03/21 11:36:31;;;;;;;6.88;4.65;;;30.20;47.80;;;;;;4994125;28;20251;-85
2022/03/21 11:39:03;;;;;;;6.57;4.85;;;30.30;48.30;;;;;;5008829;28;20382;-85
2022/03/21 11:41:31;;;;;;;6.35;4.80;;;30.30;47.10;;;;;;4991353;28;20026;-85
2022/03/21 11:44:06;;;;;;;7.17;5.37;;;30.40;47.60;;;;;;4994993;28;20018;-85
2022/03/21 11:46:38;;;;;;;6.85;4.72;;;30.60;45.30;;;;;;5000509;28;20074;-85
2022/03/21 11:49:16;;;;;;;6.47;5.07;;;30.70;46.10;;;;;;4984793;28;20038;-85
2022/03/21 11:51:43;;;;;;;5.50;4.43;;;30.80;43.70;;;;;;4985900;28;20467;-86
2022/03/21 11:54:29;;;;;;;6.55;5.40;;;30.90;46.50;;;;;;4983959;28;20041;-86
2022/03/21 11:57:00;;;;;;;6.33;5.30;;;30.90;41.20;;;;;;4974225;28;20233;-85
2022/03/21 11:59:32;;;;;;;6.45;4.63;;;31.00;45.90;;;;;;4990742;28;20483;-85
2022/03/21 12:01:59;;;;;;;6.38;4.95;;;31.00;44.40;;;;;;5000266;28;20045;-85
2022/03/21 12:04:24;;;;;;;5.72;5.13;;;31.00;45.10;;;;;;4980132;28;20453;-86
2022/03/21 12:07:20;;;;;;;7.13;5.20;;;31.00;45.40;;;;;;4990646;28;20034;-86
2022/03/21 12:09:47;;;;;;;8.07;5.45;;;31.10;43.80;;;;;;4980863;28;20766;-86
2022/03/21 12:12:15;;;;;;;6.88;5.22;;;31.10;44.20;;;;;;4996968;28;20398;-85
2022/03/21 12:14:45;;;;;;;6.72;4.97;;;31.10;44.50;;;;;;4972029;28;20215;-85
2022/03/21 12:17:10;;;;;;;6.30;5.20;;;31.10;44.00;;;;;;4982174;28;20510;-86
2022/03/21 12:19:48;;;;;;;7.82;4.90;;;31.20;44.20;;;;;;4987483;28;20202;-85
2022/03/21 12:22:36;;;;;;;6.40;4.90;;;31.30;42.70;;;;;;4988260;28;20037;-85
2022/03/21 12:25:13;;;;;;;5.73;4.67;;;31.40;42.80;;;;;;4999002;28;20490;-85
2022/03/21 12:27:46;;;;;;;6.30;4.80;;;31.40;42.00;;;;;;4979745;28;20028;-86
2022/03/21 12:30:20;;;;;;;6.80;4.43;;;31.40;43.30;;;;;;4954811;28;20503;-86
2022/03/21 12:32:54;;;;;;;6.20;4.65;;;31.50;42.10;;;;;;4992123;28;20330;-85
2022/03/21 12:35:32;;;;;;;5.28;4.13;;;31.40;41.30;;;;;;4975661;28;20445;-85
2022/03/21 12:38:03;;;;;;;5.37;4.63;;;31.40;39.90;;;;;;4998327;28;20534;-85
2022/03/21 12:40:30;;;;;;;7.45;4.70;;;31.40;40.40;;;;;;4988427;28;20033;-85
2022/03/21 12:42:59;;;;;;;5.75;4.80;;;31.40;42.30;;;;;;5000765;28;20030;-85
2022/03/21 12:45:26;;;;;;;7.63;4.95;;;31.40;41.20;;;;;;4981154;28;20041;-86
2022/03/21 12:47:59;;;;;;;5.50;4.35;;;31.30;41.40;;;;;;4999065;28;20502;-86
2022/03/21 12:50:25;;;;;;;7.80;4.60;;;31.30;42.20;;;;;;4981643;28;20507;-86
2022/03/21 12:52:53;;;;;;;5.95;4.13;;;31.40;42.60;;;;;;4977214;28;20105;-87
2022/03/21 12:55:19;;;;;;;5.40;3.80;;;31.50;42.10;;;;;;4993890;28;20034;-86
2022/03/21 12:57:55;;;;;;;6.43;4.32;;;31.50;41.80;;;;;;4998843;28;20083;-85
2022/03/21 13:00:22;;;;;;;5.22;3.65;;;31.50;38.60;;;;;;4956285;28;20030;-85
2022/03/21 13:02:47;;;;;;;5.73;3.90;;;31.40;41.20;;;;;;4999272;28;20056;-86
2022/03/21 13:10:54;;;;;;;6.83;4.00;;;31.40;40.90;;;;;;4982381;28;20038;-85
2022/03/21 13:13:23;;;;;;;5.20;3.55;;;31.50;39.60;;;;;;4995291;28;20022;-85
2022/03/21 13:16:06;;;;;;;8.27;3.75;;;31.50;40.50;;;;;;4985085;28;20060;-86